Ana Sayfa
METAR-TAF:

METAR-TAF

Havaalanları :

Mackinac Island Airport

Mackinac Island, Michigan, Amerika Birleşik Devletleri

Enlem: 45-51-54N, Boylam: 084-38-14W, yükseklik: 226 m

Güncel hava durumu gözlemi

Rapor saat 05:56 UTC de 15 dakika önce yapıldı.
Rüzgar kuzeybatıdan 9 kt
Sıcaklık -4°C
Nem 86%
Basınç 1015 hPa
Görüş mesafesi: 16.1 km
1800 ft yükseklikte çok bulutlu

METAR: KMCD 280556Z AUTO 31009KT 10SM OVC018 M04/M06 A2997 RMK AO2 T10361065 11011 21036

Saat: 01:11 (06:11 UTC)


TAF: eksik

4.000'den fazla havaalanı için hava durumu gözlemleri ve tahminleri (METAR ve TAF raporları).

Kullanılabilir istasyonlar harita üzerinde sarı ve kırmızı noktalarla gösterilir.

İstasyonun adını görmek için fareyi noktanın üzerinde gezdirin.

Sonrasında hava gözlem ve tahminlerini görmek için tıklayın.

Haritayı değiştirmek için: yaklaştırmak için siyah artı işaretli yeşil düğmeye ve uzaklaştırmak için de eksi işaretli düğmeye hızla tıklayın; bitişik haritalar için yeşil okları kullanın.


METAR-TAF: